Time;durP1;ratioP1;P1;durP2;ratioP2;P2;SDS_P1;SDS_P2;PMS_P1;PMS_P2;Temp;Humidity;BMP_temperature;BMP_pressure;BME280_temperature;BME280_humidity;BME280_pressure;Samples;Min_cycle;Max_cycle;Signal;HPM_P1;HPM_P2
2022/06/21 00:00:06;;;;;;;3.88;2.63;;;;;;;23.75;47.11;94588.50;5002005;28;20034;-60
2022/06/21 00:02:32;;;;;;;4.40;2.47;;;;;;;23.78;46.97;94592.94;4980802;28;20030;-53
2022/06/21 00:04:57;;;;;;;4.63;2.80;;;;;;;23.74;47.17;94587.06;4963817;28;20033;-55
2022/06/21 00:07:24;;;;;;;4.85;2.67;;;;;;;23.70;46.86;94581.16;4981855;28;20018;-55
2022/06/21 00:09:50;;;;;;;4.47;2.42;;;;;;;23.67;47.32;94593.13;4981643;28;20037;-53
2022/06/21 00:12:16;;;;;;;4.07;2.90;;;;;;;23.65;46.76;94584.75;5003665;28;20040;-53
2022/06/21 00:14:41;;;;;;;4.47;2.85;;;;;;;23.68;46.89;94591.88;4982213;28;20038;-58
2022/06/21 00:17:15;;;;;;;5.50;3.17;;;;;;;23.67;47.20;94585.66;5001205;28;20025;-53
2022/06/21 00:19:43;;;;;;;3.65;2.40;;;;;;;23.58;47.36;94579.84;4982667;28;20045;-53
2022/06/21 00:22:11;;;;;;;3.90;2.53;;;;;;;23.63;47.60;94587.19;4981822;28;20131;-53
2022/06/21 00:24:37;;;;;;;4.57;2.78;;;;;;;23.61;47.40;94584.28;4985169;28;20034;-56
2022/06/21 00:27:02;;;;;;;3.70;2.90;;;;;;;23.55;47.79;94586.34;4999285;28;20025;-52
2022/06/21 00:29:28;;;;;;;4.03;2.60;;;;;;;23.57;47.13;94572.94;5000289;28;20034;-54
2022/06/21 00:31:53;;;;;;;4.78;2.83;;;;;;;23.55;47.69;94575.44;5001003;28;20758;-51
2022/06/21 00:34:20;;;;;;;5.85;2.97;;;;;;;23.51;47.50;94572.28;4980329;28;20037;-53
2022/06/21 00:36:45;;;;;;;3.88;2.70;;;;;;;23.50;47.35;94573.56;4999210;28;20024;-52
2022/06/21 00:39:15;;;;;;;5.00;2.80;;;;;;;23.52;47.29;94576.50;4964525;28;20400;-53
2022/06/21 00:41:55;;;;;;;5.95;2.65;;;;;;;23.51;47.70;94575.00;5000946;28;20041;-61
2022/06/21 00:44:41;;;;;;;6.80;2.92;;;;;;;23.41;47.83;94571.22;4980177;28;20199;-60
2022/06/21 00:47:18;;;;;;;5.68;3.03;;;;;;;23.41;47.87;94582.13;4968577;28;20436;-57
2022/06/21 00:49:54;;;;;;;3.65;2.80;;;;;;;23.41;47.72;94587.56;4995144;28;20048;-53
2022/06/21 00:52:43;;;;;;;3.38;2.70;;;;;;;23.33;47.71;94575.78;4964657;28;20104;-52
2022/06/21 00:55:23;;;;;;;5.22;2.88;;;;;;;23.35;48.14;94584.19;4997895;28;20041;-52
2022/06/21 00:57:51;;;;;;;4.70;3.10;;;;;;;23.37;47.72;94576.22;4967961;28;21152;-51
2022/06/21 01:00:23;;;;;;;4.30;2.85;;;;;;;23.33;47.70;94581.25;4983014;28;20033;-52
2022/06/21 01:02:48;;;;;;;4.85;3.38;;;;;;;23.29;47.90;94580.81;5000242;28;20030;-52
2022/06/21 01:05:13;;;;;;;4.38;2.97;;;;;;;23.25;48.29;94574.94;5001177;28;20029;-53
2022/06/21 01:07:39;;;;;;;4.60;2.80;;;;;;;23.27;48.12;94566.97;5000734;28;20578;-52
2022/06/21 01:10:07;;;;;;;4.40;3.00;;;;;;;23.27;48.17;94572.41;4982766;28;20029;-57
2022/06/21 01:12:43;;;;;;;5.40;3.10;;;;;;;23.24;48.40;94573.44;4977591;28;20038;-53
2022/06/21 01:15:12;;;;;;;4.25;2.90;;;;;;;23.21;48.21;94574.50;4982710;28;20041;-51
2022/06/21 01:17:38;;;;;;;4.07;3.05;;;;;;;23.25;48.63;94574.94;5000257;28;20033;-51
2022/06/21 01:20:08;;;;;;;4.80;3.17;;;;;;;23.21;48.56;94579.22;4957759;28;20033;-53
2022/06/21 01:22:40;;;;;;;4.82;3.45;;;;;;;23.21;48.71;94573.75;5004087;28;20037;-53
2022/06/21 01:25:24;;;;;;;6.40;3.03;;;;;;;23.15;48.77;94587.50;5003152;28;20037;-51
2022/06/21 01:27:51;;;;;;;5.07;3.20;;;;;;;23.15;48.49;94582.03;5007806;28;20640;-51
2022/06/21 01:30:17;;;;;;;4.30;3.00;;;;;;;23.14;48.63;94583.28;4991064;28;20030;-51
2022/06/21 01:32:42;;;;;;;4.35;3.08;;;;;;;23.12;48.59;94588.53;5005716;28;20116;-61
2022/06/21 01:35:10;;;;;;;5.57;2.80;;;;;;;23.10;48.74;94580.13;4971510;28;20041;-51
2022/06/21 01:37:36;;;;;;;4.53;3.08;;;;;;;23.05;48.73;94580.94;4979924;28;20036;-54
2022/06/21 01:40:06;;;;;;;4.82;3.28;;;;;;;23.07;48.76;94586.59;5002738;28;20025;-51
2022/06/21 01:42:34;;;;;;;4.00;3.10;;;;;;;23.09;48.91;94586.84;4968126;28;20045;-51
2022/06/21 01:45:04;;;;;;;3.72;3.15;;;;;;;23.05;49.41;94589.09;4971372;28;20116;-54
2022/06/21 01:47:41;;;;;;;6.78;3.65;;;;;;;23.03;48.58;94591.63;4987302;28;20084;-54
2022/06/21 01:50:07;;;;;;;4.57;3.20;;;;;;;22.99;49.01;94591.16;4986011;28;20069;-50
2022/06/21 01:52:34;;;;;;;4.28;3.30;;;;;;;22.98;49.53;94584.25;4986847;28;20045;-52
2022/06/21 01:55:06;;;;;;;3.95;3.10;;;;;;;23.00;49.18;94587.22;4968925;28;20028;-52
2022/06/21 01:57:31;;;;;;;5.50;3.30;;;;;;;23.00;48.99;94586.44;5001439;28;20053;-56
2022/06/21 01:59:58;;;;;;;4.55;2.95;;;;;;;22.97;49.32;94588.25;4985867;28;20476;-52
2022/06/21 02:02:27;;;;;;;6.00;3.58;;;;;;;22.97;49.22;94587.50;4985467;28;20101;-52
2022/06/21 02:04:55;;;;;;;3.70;3.20;;;;;;;22.95;49.11;94588.00;4970586;28;20117;-52
2022/06/21 02:07:24;;;;;;;4.55;3.40;;;;;;;22.93;49.57;94593.25;5002785;28;20076;-53
2022/06/21 02:10:11;;;;;;;4.50;3.38;;;;;;;22.91;49.46;94594.97;4986678;28;20113;-52
2022/06/21 02:12:38;;;;;;;9.63;4.07;;;;;;;22.92;49.69;94585.56;4972941;28;20029;-55
2022/06/21 02:15:06;;;;;;;6.93;3.70;;;;;;;22.87;49.94;94582.91;5003682;28;20517;-54
2022/06/21 02:17:39;;;;;;;6.18;3.53;;;;;;;22.87;49.47;94594.53;4987352;28;20152;-52
2022/06/21 02:20:23;;;;;;;4.55;3.40;;;;;;;22.84;49.52;94600.25;4972797;28;20492;-54
2022/06/21 02:22:48;;;;;;;4.75;2.90;;;;;;;22.81;49.88;94595.84;5001071;28;20472;-56
2022/06/21 02:25:21;;;;;;;4.88;3.63;;;;;;;22.80;49.80;94584.22;4969971;28;20130;-57
2022/06/21 02:27:47;;;;;;;6.53;3.10;;;;;;;22.81;49.60;94574.06;5004443;28;20014;-51
2022/06/21 02:30:18;;;;;;;4.88;3.35;;;;;;;22.77;49.93;94579.09;4989509;28;20041;-53
2022/06/21 02:32:43;;;;;;;4.38;3.25;;;;;;;22.78;49.98;94575.09;4966427;28;21183;-52
2022/06/21 02:35:29;;;;;;;5.13;3.40;;;;;;;22.79;50.09;94576.59;4983445;28;20036;-55
2022/06/21 02:38:00;;;;;;;7.13;3.83;;;;;;;22.71;49.90;94570.28;4992917;28;20160;-57
2022/06/21 02:40:39;;;;;;;4.63;3.53;;;;;;;22.73;49.90;94575.91;4987232;28;20033;-51
2022/06/21 02:43:14;;;;;;;4.50;3.17;;;;;;;22.73;49.85;94573.19;4981787;28;20038;-53
2022/06/21 02:46:08;;;;;;;5.63;3.38;;;;;;;22.69;49.89;94575.47;4965827;28;20107;-54
2022/06/21 02:48:40;;;;;;;5.70;3.30;;;;;;;22.67;50.19;94575.25;5002382;28;20088;-53
2022/06/21 02:51:10;;;;;;;5.07;3.67;;;;;;;22.66;50.03;94569.09;4984475;28;20033;-52
2022/06/21 02:53:42;;;;;;;;;;;;;;;22.56;50.26;94578.13;4979163;28;20026;-50
2022/06/21 02:56:25;;;;;;;6.38;3.78;;;;;;;22.63;49.95;94574.81;4980732;28;19924;-52
2022/06/21 02:58:52;;;;;;;4.63;3.28;;;;;;;22.65;49.97;94561.44;5001235;28;20121;-52
2022/06/21 03:01:26;;;;;;;6.00;3.30;;;;;;;22.63;50.45;94569.38;4983380;28;20103;-52
2022/06/21 03:03:52;;;;;;;4.65;3.05;;;;;;;22.61;50.23;94566.44;4999066;28;20077;-53
2022/06/21 03:06:18;;;;;;;5.65;3.38;;;;;;;22.58;50.27;94568.19;4979601;28;20036;-51
2022/06/21 03:08:52;;;;;;;4.05;3.35;;;;;;;22.59;50.25;94566.94;5002396;28;20441;-55
2022/06/21 03:11:19;;;;;;;7.65;3.60;;;;;;;22.59;50.23;94568.94;4980853;28;20164;-54
2022/06/21 03:13:44;;;;;;;4.78;3.20;;;;;;;22.58;50.27;94572.91;4981953;28;20030;-52
2022/06/21 03:16:12;;;;;;;4.40;3.50;;;;;;;22.58;50.04;94559.28;5002399;28;20029;-54
2022/06/21 03:18:44;;;;;;;4.75;3.78;;;;;;;22.56;50.20;94559.09;5003082;28;20556;-58
2022/06/21 03:21:11;;;;;;;5.20;3.70;;;;;;;22.55;50.40;94552.88;4999735;28;20034;-52
2022/06/21 03:23:36;;;;;;;4.35;3.17;;;;;;;22.58;50.36;94562.00;4966710;28;20416;-51
2022/06/21 03:26:03;;;;;;;4.57;3.40;;;;;;;22.56;50.29;94554.38;5002745;28;20049;-52
2022/06/21 03:28:34;;;;;;;6.38;3.30;;;;;;;22.59;50.34;94558.06;4998736;28;20034;-52
2022/06/21 03:31:10;;;;;;;5.78;3.50;;;;;;;22.58;50.18;94562.00;4997795;28;20033;-55
2022/06/21 03:33:36;;;;;;;5.43;3.40;;;;;;;22.58;50.25;94556.56;4999908;28;20083;-54
2022/06/21 03:36:04;;;;;;;5.60;3.60;;;;;;;22.58;50.50;94560.03;4979797;28;20026;-52
2022/06/21 03:38:29;;;;;;;6.35;3.47;;;;;;;22.56;50.50;94559.09;4999087;28;20022;-53
2022/06/21 03:43:53;;;;;;;4.15;3.10;;;;;;;22.55;50.56;94557.59;4994613;28;20135;-52
2022/06/21 03:46:23;;;;;;;4.70;3.30;;;;;;;22.57;50.85;94563.25;4970005;28;20034;-54
2022/06/21 03:48:54;;;;;;;5.47;3.65;;;;;;;22.57;50.79;94572.19;4983658;28;20559;-52
2022/06/21 03:51:22;;;;;;;6.00;3.92;;;;;;;22.58;50.86;94575.63;4984137;28;20029;-57
2022/06/21 03:53:50;;;;;;;6.00;4.13;;;;;;;22.57;51.29;94587.75;4982597;28;20462;-55
2022/06/21 03:56:26;;;;;;;5.40;3.53;;;;;;;22.58;51.24;94584.50;4982944;28;20038;-58
2022/06/21 03:59:19;;;;;;;5.80;3.65;;;;;;;22.61;51.50;94582.75;4980793;28;20030;-56
2022/06/21 04:01:53;;;;;;;5.63;3.45;;;;;;;22.66;51.16;94584.66;5000085;28;20048;-59
2022/06/21 04:04:29;;;;;;;4.82;3.67;;;;;;;22.59;51.84;94586.00;4998404;28;20030;-55
2022/06/21 04:07:04;;;;;;;5.72;3.47;;;;;;;22.62;51.68;94581.50;4983805;28;20062;-62
2022/06/21 04:09:55;;;;;;;5.43;3.70;;;;;;;22.61;51.76;94571.88;4999452;28;20026;-55
2022/06/21 04:12:30;;;;;;;5.38;4.05;;;;;;;22.68;51.82;94576.75;4980270;28;20124;-54
2022/06/21 04:15:03;;;;;;;5.70;3.80;;;;;;;22.75;51.55;94565.25;4998648;28;20362;-54
2022/06/21 04:17:29;;;;;;;6.20;3.78;;;;;;;22.85;51.43;94574.53;4966561;28;20030;-51
2022/06/21 04:20:18;;;;;;;7.07;4.35;;;;;;;22.93;51.15;94570.69;4999539;28;20496;-53
2022/06/21 04:22:47;;;;;;;6.78;4.05;;;;;;;23.01;50.77;94566.88;4999007;28;20555;-54
2022/06/21 04:25:26;;;;;;;5.50;3.78;;;;;;;23.08;51.12;94560.84;4998851;28;20040;-58
2022/06/21 04:27:56;;;;;;;6.28;4.10;;;;;;;23.19;50.13;94563.38;4982839;28;20030;-54
2022/06/21 04:30:25;;;;;;;7.30;4.47;;;;;;;23.30;50.66;94557.75;4966906;28;20501;-57
2022/06/21 04:32:56;;;;;;;8.15;4.45;;;;;;;23.40;50.07;94547.94;4964813;28;20022;-55
2022/06/21 04:35:29;;;;;;;7.57;4.53;;;;;;;23.52;50.55;94546.50;4981797;28;20042;-53
2022/06/21 04:37:59;;;;;;;5.72;4.40;;;;;;;23.62;50.17;94547.59;4983813;28;20053;-52
2022/06/21 04:40:40;;;;;;;5.63;4.45;;;;;;;23.76;49.70;94551.81;4982692;28;20029;-53
2022/06/21 04:43:23;;;;;;;9.88;4.70;;;;;;;23.86;49.16;94544.72;4982950;28;20481;-54
2022/06/21 04:46:15;;;;;;;10.00;5.05;;;;;;;24.02;48.67;94547.84;4981713;28;20033;-59
2022/06/21 04:48:51;;;;;;;6.60;4.50;;;;;;;24.02;48.38;94542.41;4981149;28;20061;-54
2022/06/21 04:51:39;;;;;;;6.72;4.88;;;;;;;24.18;48.43;94549.53;4985988;28;20030;-54
2022/06/21 04:54:25;;;;;;;8.75;5.13;;;;;;;24.26;48.33;94555.84;4984862;28;20037;-56
2022/06/21 04:57:03;;;;;;;13.02;5.07;;;;;;;24.47;47.71;94559.41;5007899;28;20022;-54
2022/06/21 04:59:38;;;;;;;9.50;4.93;;;;;;;24.59;47.55;94572.31;5003474;28;20109;-52
2022/06/21 05:02:03;;;;;;;7.55;4.82;;;;;;;24.65;47.80;94580.38;4985520;28;20041;-54
2022/06/21 05:04:32;;;;;;;10.23;4.95;;;;;;;24.74;48.14;94582.66;4969811;28;20118;-51
2022/06/21 05:06:59;;;;;;;10.43;5.47;;;;;;;24.89;47.79;94583.59;4988457;28;20128;-61
2022/06/21 05:09:25;;;;;;;9.38;5.10;;;;;;;24.99;47.31;94582.66;4967958;28;20034;-54
2022/06/21 05:11:57;;;;;;;11.10;5.15;;;;;;;24.96;46.55;94600.06;5000640;28;21323;-52
2022/06/21 05:14:25;;;;;;;7.88;5.10;;;;;;;25.03;46.23;94593.97;5003896;28;20038;-54
2022/06/21 05:16:50;;;;;;;8.93;5.10;;;;;;;25.10;45.84;94593.31;4967140;28;20033;-53
2022/06/21 05:19:25;;;;;;;9.43;5.28;;;;;;;25.16;46.04;94599.41;5012050;28;20040;-51
2022/06/21 05:22:20;;;;;;;10.18;5.50;;;;;;;25.31;45.50;94605.03;4987106;28;20068;-54
2022/06/21 05:24:46;;;;;;;8.50;5.63;;;;;;;25.26;44.99;94594.97;4974090;28;20080;-59
2022/06/21 05:27:19;;;;;;;8.55;5.22;;;;;;;25.35;45.38;94594.47;5003691;28;20061;-53
2022/06/21 05:30:09;;;;;;;8.57;5.40;;;;;;;25.48;44.73;94588.97;4972980;28;20108;-57
2022/06/21 05:32:37;;;;;;;;;;;;;;;25.46;44.79;94592.22;4971310;28;20048;-61
2022/06/21 05:35:09;;;;;;;9.75;5.88;;;;;;;25.45;44.42;94584.56;4987994;28;20003;-53
2022/06/21 05:37:37;;;;;;;8.15;5.63;;;;;;;25.48;44.40;94580.75;4986947;28;20057;-52
2022/06/21 05:40:28;;;;;;;9.55;6.03;;;;;;;25.59;44.03;94589.44;4983393;28;20010;-56
2022/06/21 05:42:54;;;;;;;7.45;5.50;;;;;;;25.70;44.31;94599.41;5002007;28;20092;-53
2022/06/21 05:45:20;;;;;;;9.63;5.20;;;;;;;25.79;43.71;94585.97;4987605;28;20408;-54
2022/06/21 05:47:54;;;;;;;7.10;4.68;;;;;;;25.86;43.18;94577.84;4986208;28;20378;-52
2022/06/21 05:50:23;;;;;;;8.63;5.88;;;;;;;26.00;42.98;94590.16;4984662;28;20460;-54
2022/06/21 05:52:51;;;;;;;9.20;5.20;;;;;;;26.13;42.78;94581.84;4983562;28;20032;-52
2022/06/21 05:55:25;;;;;;;9.15;5.00;;;;;;;26.17;43.20;94586.97;5002030;28;20030;-57
2022/06/21 05:57:54;;;;;;;6.93;4.78;;;;;;;26.01;43.50;94575.22;5017550;28;20103;-52
2022/06/21 06:00:25;;;;;;;10.07;5.40;;;;;;;26.15;42.59;94573.84;5019576;28;20053;-55
2022/06/21 06:02:52;;;;;;;10.60;5.05;;;;;;;26.30;42.47;94568.47;4984131;28;20038;-53
2022/06/21 06:05:26;;;;;;;6.75;5.35;;;;;;;26.39;42.52;94565.97;5003722;28;20803;-55
2022/06/21 06:07:55;;;;;;;8.98;5.28;;;;;;;26.49;42.55;94574.44;4970809;28;20033;-53
2022/06/21 06:10:20;;;;;;;9.18;5.07;;;;;;;26.57;42.68;94564.25;4983821;28;21266;-56
2022/06/21 06:12:48;;;;;;;7.05;4.85;;;;;;;26.66;42.41;94577.44;4983553;28;20556;-56
2022/06/21 06:15:42;;;;;;;6.72;4.47;;;;;;;26.40;42.75;94577.69;4967079;28;20048;-51
2022/06/21 06:18:35;;;;;;;9.45;4.90;;;;;;;26.45;42.83;94574.03;4984596;28;20025;-51
2022/06/21 06:21:15;;;;;;;7.63;4.90;;;;;;;26.48;42.44;94572.97;5018151;28;20021;-51
2022/06/21 06:23:57;;;;;;;7.50;4.90;;;;;;;26.60;42.11;94580.31;4983115;28;20126;-56
2022/06/21 06:26:25;;;;;;;8.15;4.82;;;;;;;26.47;42.46;94583.19;4970844;28;20150;-53
2022/06/21 06:29:05;;;;;;;7.38;4.78;;;;;;;26.67;41.92;94590.59;5015114;28;20395;-50
2022/06/21 06:31:51;;;;;;;8.85;4.47;;;;;;;26.61;42.32;94592.03;4984903;28;20029;-53
2022/06/21 06:34:18;;;;;;;8.55;4.68;;;;;;;26.50;42.82;94584.09;4984127;28;20036;-52
2022/06/21 06:36:50;;;;;;;8.48;4.90;;;;;;;26.46;42.56;94586.47;4999951;28;20053;-52
2022/06/21 06:39:25;;;;;;;8.60;5.38;;;;;;;26.47;42.31;94598.88;4981533;28;20033;-52
2022/06/21 06:41:56;;;;;;;10.05;4.72;;;;;;;26.41;42.52;94590.06;5000332;28;20048;-51
2022/06/21 06:44:24;;;;;;;8.88;5.18;;;;;;;26.35;42.73;94589.50;4998859;28;20053;-54
2022/06/21 06:46:50;;;;;;;7.20;4.65;;;;;;;26.33;42.96;94594.78;4998785;28;20030;-51
2022/06/21 06:49:30;;;;;;;8.32;4.80;;;;;;;26.23;43.17;94590.31;5004073;28;20068;-53
2022/06/21 06:52:04;;;;;;;;;;;;;;;26.08;43.63;94585.47;4985775;28;20026;-52
2022/06/21 06:54:48;;;;;;;9.00;4.53;;;;;;;26.08;43.56;94585.47;5002316;28;19921;-54
2022/06/21 06:57:22;;;;;;;7.63;4.18;;;;;;;26.05;43.95;94586.56;4999221;28;20030;-52
2022/06/21 06:59:48;;;;;;;9.68;4.43;;;;;;;26.15;43.69;94573.84;5002836;28;20041;-51
2022/06/21 07:02:47;;;;;;;8.55;4.25;;;;;;;26.13;44.11;94570.91;4999533;28;20083;-52
2022/06/21 07:05:26;;;;;;;9.85;4.57;;;;;;;26.08;44.28;94569.03;4946970;28;20117;-53
2022/06/21 07:07:53;;;;;;;6.20;4.32;;;;;;;26.01;44.71;94569.72;4981393;28;20026;-54
2022/06/21 07:10:21;;;;;;;9.38;4.95;;;;;;;26.00;45.05;94565.53;5001588;28;20040;-53
2022/06/21 07:12:47;;;;;;;8.88;4.32;;;;;;;25.99;44.94;94561.34;4999517;28;20030;-53
2022/06/21 07:15:13;;;;;;;8.23;4.40;;;;;;;25.95;45.30;94560.22;4999632;28;20112;-53
2022/06/21 07:17:55;;;;;;;8.30;4.70;;;;;;;25.92;45.54;94553.81;4967375;28;20061;-53
2022/06/21 07:20:36;;;;;;;9.20;5.13;;;;;;;25.88;45.92;94561.59;4988877;28;20069;-53
2022/06/21 07:23:02;;;;;;;10.00;5.28;;;;;;;25.88;46.17;94556.13;5003431;28;20033;-52
2022/06/21 07:25:34;;;;;;;7.68;5.35;;;;;;;25.92;46.25;94556.53;4985406;28;20029;-53
2022/06/21 07:28:21;;;;;;;8.18;4.90;;;;;;;25.90;46.20;94553.63;4985574;28;20092;-56
2022/06/21 07:30:47;;;;;;;7.47;4.47;;;;;;;25.89;46.26;94563.09;4979807;28;20207;-52
2022/06/21 07:33:23;;;;;;;7.80;4.72;;;;;;;25.92;46.21;94562.00;4985499;28;20073;-54
2022/06/21 07:35:52;;;;;;;6.85;4.35;;;;;;;25.93;46.22;94563.50;4987709;28;20042;-52
2022/06/21 07:38:22;;;;;;;7.65;4.22;;;;;;;25.92;45.44;94564.75;4970218;28;20029;-54
2022/06/21 07:41:00;;;;;;;10.32;4.68;;;;;;;25.93;46.51;94563.50;4978096;28;20034;-51
2022/06/21 07:43:30;;;;;;;9.82;4.75;;;;;;;25.97;45.83;94574.81;4970733;28;20129;-54
2022/06/21 07:45:58;;;;;;;8.93;4.25;;;;;;;25.97;46.28;94585.75;4981289;28;20057;-57
2022/06/21 07:48:40;;;;;;;12.85;5.07;;;;;;;26.00;45.81;94573.72;4982389;28;20022;-55
2022/06/21 07:51:11;;;;;;;6.68;4.25;;;;;;;26.02;45.56;94584.13;4967936;28;20034;-53
2022/06/21 07:54:10;;;;;;;8.30;4.18;;;;;;;26.04;45.55;94585.09;4981643;28;20030;-52
2022/06/21 07:56:50;;;;;;;5.68;3.90;;;;;;;26.07;45.40;94596.94;4976507;28;20682;-54
2022/06/21 07:59:23;;;;;;;8.45;4.60;;;;;;;26.08;45.20;94612.81;4965042;28;20075;-54
2022/06/21 08:08:08;;;;;;;5.93;3.83;;;;;;;26.07;45.55;94594.19;4998097;28;20485;-52
2022/06/21 08:10:39;;;;;;;6.82;4.25;;;;;;;26.06;45.72;94603.69;4982362;28;20041;-52
2022/06/21 08:13:04;;;;;;;7.97;5.13;;;;;;;26.08;46.10;94598.41;4981937;28;20073;-54
2022/06/21 08:15:38;;;;;;;9.35;4.40;;;;;;;26.09;45.68;94608.81;4966942;28;20744;-53
2022/06/21 08:18:10;;;;;;;6.07;4.07;;;;;;;26.06;46.01;94617.38;4967927;28;20033;-52
2022/06/21 08:20:47;;;;;;;7.35;4.55;;;;;;;26.11;45.34;94611.75;4986211;28;20026;-56
2022/06/21 08:23:32;;;;;;;8.07;4.60;;;;;;;26.12;45.92;94613.22;5000796;28;20484;-55
2022/06/21 08:26:08;;;;;;;6.43;4.65;;;;;;;26.12;46.35;94607.75;4966633;28;20042;-52
2022/06/21 08:28:36;;;;;;;6.63;4.20;;;;;;;26.13;46.69;94614.72;4999492;28;20037;-51
2022/06/21 08:31:06;;;;;;;14.27;5.18;;;;;;;26.09;46.85;94617.03;5000534;28;20036;-53
2022/06/21 08:33:36;;;;;;;9.55;5.32;;;;;;;26.05;47.12;94624.88;4985384;28;20489;-52
2022/06/21 08:36:05;;;;;;;7.13;4.68;;;;;;;26.07;47.02;94622.31;5000153;28;20038;-51
2022/06/21 08:38:32;;;;;;;8.85;5.35;;;;;;;26.08;46.47;94623.78;4985087;28;20018;-57
2022/06/21 08:41:51;;;;;;;7.25;5.13;;;;;;;26.18;46.36;94622.03;4999954;28;20120;-53
2022/06/21 08:44:16;;;;;;;8.60;5.13;;;;;;;26.18;45.98;94627.50;4988590;28;20498;-50
2022/06/21 08:47:19;;;;;;;10.13;5.07;;;;;;;26.13;46.87;94608.47;4996835;28;20066;-54
2022/06/21 08:49:57;;;;;;;9.05;5.60;;;;;;;26.13;47.40;94603.75;5000537;28;20034;-52
2022/06/21 08:53:04;;;;;;;11.20;5.72;;;;;;;26.12;47.23;94618.69;4997586;28;20025;-54
2022/06/21 08:55:57;;;;;;;7.85;5.82;;;;;;;26.14;47.58;94616.16;4985855;28;20527;-52
2022/06/21 08:58:47;;;;;;;7.82;5.55;;;;;;;26.14;47.37;94610.69;4980292;28;20041;-53
2022/06/21 09:01:33;;;;;;;;;;;;;;;26.17;47.70;94603.41;4995724;28;20062;-51
2022/06/21 09:04:29;;;;;;;7.88;4.97;;;;;;;26.17;48.28;94604.13;4998682;28;20388;-51
2022/06/21 09:07:28;;;;;;;13.75;5.63;;;;;;;26.16;47.93;94597.22;5000231;28;20034;-52
2022/06/21 09:10:36;;;;;;;11.55;6.15;;;;;;;26.19;48.18;94596.13;4981278;28;20449;-53
2022/06/21 09:13:13;;;;;;;11.52;5.50;;;;;;;26.24;47.56;94589.03;4995689;28;20041;-58
2022/06/21 09:15:51;;;;;;;9.00;5.95;;;;;;;26.28;47.79;94587.47;5003522;28;20128;-54
2022/06/21 09:18:22;;;;;;;7.90;6.43;;;;;;;26.24;48.99;94592.50;4998751;28;20147;-53
2022/06/21 09:21:04;;;;;;;11.88;6.35;;;;;;;26.27;48.52;94594.91;5003895;28;20436;-54
2022/06/21 09:23:33;;;;;;;8.30;6.50;;;;;;;26.40;48.07;94594.09;4981666;28;20030;-53
2022/06/21 09:26:07;;;;;;;10.20;6.22;;;;;;;26.43;48.50;94584.81;4999231;28;20703;-52
2022/06/21 09:28:41;;;;;;;9.73;6.93;;;;;;;26.53;48.02;94580.28;5005461;28;20752;-56
2022/06/21 09:31:12;;;;;;;10.57;6.13;;;;;;;26.64;47.99;94580.00;4995494;28;20041;-55
2022/06/21 09:33:48;;;;;;;9.57;6.38;;;;;;;26.71;49.20;94590.25;4998860;28;20036;-55
2022/06/21 09:36:21;;;;;;;12.15;6.28;;;;;;;26.77;48.67;94575.84;4996444;28;20057;-53
2022/06/21 09:38:47;;;;;;;11.68;6.22;;;;;;;26.95;48.02;94580.34;4982875;28;20146;-56
2022/06/21 09:41:16;;;;;;;10.52;6.53;;;;;;;27.10;47.53;94563.94;5004512;28;20053;-54
2022/06/21 09:44:03;;;;;;;10.35;6.25;;;;;;;27.18;47.53;94566.69;4985056;28;20048;-53
2022/06/21 09:46:58;;;;;;;7.70;5.95;;;;;;;27.36;46.95;94560.88;5003984;28;20028;-53
2022/06/21 09:49:44;;;;;;;11.90;6.30;;;;;;;27.46;47.00;94559.06;4990478;28;20482;-52
2022/06/21 09:52:30;;;;;;;9.23;7.05;;;;;;;27.63;46.82;94573.00;5000818;28;20500;-53
2022/06/21 09:55:17;;;;;;;9.00;5.95;;;;;;;27.75;46.39;94534.41;5003464;28;20034;-51
2022/06/21 09:58:09;;;;;;;10.70;6.88;;;;;;;27.90;45.90;94553.59;4998597;28;20129;-50
2022/06/21 10:00:48;;;;;;;8.82;6.10;;;;;;;28.02;46.05;94549.19;5001594;28;20046;-52
2022/06/21 10:03:29;;;;;;;7.35;6.43;;;;;;;28.10;45.84;94538.97;4989523;28;20149;-53
2022/06/21 10:06:00;;;;;;;8.10;6.50;;;;;;;28.20;45.71;94550.84;4990736;28;20037;-55
2022/06/21 10:08:34;;;;;;;8.77;6.50;;;;;;;28.34;45.27;94557.59;5003619;28;20030;-52
2022/06/21 10:11:28;;;;;;;8.85;6.40;;;;;;;28.45;44.73;94562.72;5006411;28;20092;-51
2022/06/21 10:14:06;;;;;;;9.10;6.53;;;;;;;28.46;44.91;94564.16;4989703;28;20034;-53
2022/06/21 10:16:54;;;;;;;7.93;6.68;;;;;;;28.58;44.55;94556.97;5004428;28;20030;-52
2022/06/21 10:19:38;;;;;;;8.75;6.65;;;;;;;28.64;44.68;94554.75;5003822;28;20105;-52
2022/06/21 10:22:28;;;;;;;9.20;6.53;;;;;;;28.71;44.22;94551.28;5004143;28;20046;-55
2022/06/21 10:25:18;;;;;;;9.30;6.45;;;;;;;28.73;44.27;94550.19;5003132;28;20057;-54
2022/06/21 10:27:58;;;;;;;9.65;6.40;;;;;;;28.80;43.71;94554.94;5000227;28;20461;-59
2022/06/21 10:30:33;;;;;;;9.40;6.85;;;;;;;28.88;43.71;94549.41;5003044;28;20030;-54
2022/06/21 10:33:11;;;;;;;8.43;6.28;;;;;;;28.86;43.78;94547.19;5000361;28;20037;-55
2022/06/21 10:35:43;;;;;;;9.70;6.17;;;;;;;28.98;43.61;94542.72;4997898;28;20024;-54
2022/06/21 10:38:27;;;;;;;8.90;6.05;;;;;;;29.12;43.50;94549.44;4997913;28;20033;-53
2022/06/21 10:41:02;;;;;;;10.10;6.10;;;;;;;29.14;43.69;94549.63;4998453;28;20034;-57
2022/06/21 10:43:50;;;;;;;7.90;6.68;;;;;;;29.19;42.97;94548.66;4999852;28;20125;-55
2022/06/21 10:46:38;;;;;;;11.60;7.32;;;;;;;29.22;42.97;94555.78;4996677;28;20038;-56
2022/06/21 10:49:25;;;;;;;8.90;5.88;;;;;;;29.26;43.13;94556.19;4999787;28;20132;-53
2022/06/21 10:52:12;;;;;;;8.23;6.05;;;;;;;29.43;42.65;94553.50;4997649;28;20049;-58
2022/06/21 10:54:41;;;;;;;8.25;6.43;;;;;;;29.32;42.61;94559.44;4998532;28;20560;-53
2022/06/21 10:57:18;;;;;;;7.55;6.00;;;;;;;29.51;42.24;94559.69;4999574;28;20034;-52
2022/06/21 11:02:56;;;;;;;7.13;5.88;;;;;;;29.51;42.51;94556.94;5001021;28;20108;-51
2022/06/21 11:06:00;;;;;;;8.68;5.95;;;;;;;29.51;42.40;94559.69;5001079;28;20030;-56
2022/06/21 11:08:32;;;;;;;7.65;5.72;;;;;;;29.50;42.24;94563.72;4965278;28;20045;-54
2022/06/21 11:11:17;;;;;;;8.38;5.82;;;;;;;29.49;42.70;94562.25;4979357;28;20026;-51
2022/06/21 11:14:06;;;;;;;7.82;5.60;;;;;;;29.47;42.33;94562.09;4982567;28;21779;-55
2022/06/21 11:16:34;;;;;;;8.85;6.85;;;;;;;29.32;42.90;94570.44;4999950;28;20129;-57
2022/06/21 11:19:37;;;;;;;7.30;6.20;;;;;;;29.41;43.21;94556.09;5001824;28;20042;-54
2022/06/21 11:22:19;;;;;;;7.68;5.65;;;;;;;29.19;43.44;94559.66;4987479;28;20026;-55
2022/06/21 11:25:03;;;;;;;10.40;6.32;;;;;;;29.07;44.19;94555.16;4984926;28;20105;-55
2022/06/21 11:27:58;;;;;;;7.32;6.43;;;;;;;29.02;44.89;94559.56;5004833;28;20100;-59
2022/06/21 11:30:42;;;;;;;9.57;6.50;;;;;;;28.94;44.74;94563.66;4967163;28;20563;-54
2022/06/21 11:33:14;;;;;;;9.70;6.70;;;;;;;28.89;44.92;94554.34;5000015;28;20042;-53
2022/06/21 11:35:46;;;;;;;10.70;6.88;;;;;;;29.03;44.51;94558.28;4982989;28;20551;-52
2022/06/21 11:38:20;;;;;;;8.93;6.68;;;;;;;29.00;44.70;94544.91;5000522;28;20040;-58
2022/06/21 11:41:10;;;;;;;7.97;7.18;;;;;;;28.86;44.66;94552.69;4998014;28;20568;-53
2022/06/21 11:43:45;;;;;;;10.38;6.80;;;;;;;28.85;45.19;94559.47;4978897;28;20140;-54
2022/06/21 11:46:24;;;;;;;8.68;6.25;;;;;;;28.80;45.43;94554.94;4983255;28;20037;-55
2022/06/21 11:48:53;;;;;;;7.47;6.63;;;;;;;28.74;44.74;94551.66;4984945;28;20030;-54
2022/06/21 11:51:23;;;;;;;10.32;6.78;;;;;;;28.73;45.35;94558.41;5000068;28;20130;-52
2022/06/21 11:53:57;;;;;;;8.50;6.43;;;;;;;28.66;45.20;94549.47;4998095;28;20025;-53
2022/06/21 11:57:14;;;;;;;7.75;6.25;;;;;;;28.63;45.36;94550.56;4980665;28;20026;-52
2022/06/21 11:59:54;;;;;;;8.82;6.60;;;;;;;28.56;45.10;94540.31;4899290;29;20238;-52
2022/06/21 12:02:52;;;;;;;7.55;6.43;;;;;;;28.55;45.82;94538.84;4998351;28;20482;-52
2022/06/21 12:05:33;;;;;;;9.10;6.80;;;;;;;28.42;46.08;94550.06;4979222;28;20014;-54
2022/06/21 12:08:29;;;;;;;9.57;6.32;;;;;;;28.46;45.88;94542.16;5001475;28;20034;-55
2022/06/21 12:11:03;;;;;;;10.65;7.22;;;;;;;28.42;45.93;94547.34;5003616;28;20172;-54
2022/06/21 12:13:29;;;;;;;7.88;6.35;;;;;;;28.42;45.89;94547.34;4964985;28;20037;-54
2022/06/21 12:16:22;;;;;;;9.48;6.38;;;;;;;28.40;45.29;94544.38;4998778;28;20108;-53
2022/06/21 12:18:51;;;;;;;10.10;6.30;;;;;;;28.37;45.76;94535.25;4999278;28;20025;-53
2022/06/21 12:21:19;;;;;;;7.60;6.43;;;;;;;28.39;45.42;94543.66;4980954;28;20026;-54
2022/06/21 12:23:56;;;;;;;8.02;6.63;;;;;;;28.35;46.35;94542.56;4983984;28;20669;-52